Share

Goulburn, New South Wales

6:13 PM EST on April 24, 2014 (GMT +1000)
Goulburn NSW (INEWSOUT343) Elev 2178 ft | 34.76 °S, 149.71 °E | Change Station

Current weather conditions updated 4 seconds ago

Partly Cloudy
Partly Cloudy
58.6 °F
Feels Like 58.6 °F
N
0.7
Wind Variable Wind from West
Gusts 3.8 mph
Sunrise 6:31 AM
Sunset 5:27 PM
Moon Waning Crescent

Tomorrow is forecast to be Much Cooler than today.

Pressure 30.01 in
Visibility 6.2 miles
Clouds Few 4000 ft
Dew Point 49 °F
Humidity 70%
Rainfall 0.00 in
Snow Depth Not available.
UV 0 out of 16
Pollen Not available.
Air Quality Not available.
Flu Activity Not available.
METAR YSCB 240800Z 30006KT 9999 FEW040 14/03 Q1016 FM0900 19008KT 9999 FEW030

More Conditions Fewer Conditions

Pressure 30.01 in
Visibility 6.2 miles
Clouds Few 4000 ft
Dew Point 49 °F
Humidity 70%
Rainfall 0.00 in
Snow Depth Not available.
UV 0 out of 16
Pollen Not available.
Air Quality Not available.
Flu Activity Not available.
METAR YSCB 240800Z 30006KT 9999 FEW040 14/03 Q1016 FM0900 19008KT 9999 FEW030

More Conditions Fewer Conditions

10-Day Weather Forecast

Almanac

Astronomy

Apr. 24, 2014 Rise Set
Actual Time 6:31 AM EST 5:27 PM EST
Civil Twilight 6:05 AM EST 5:52 PM EST
Nautical Twilight 5:35 AM EST 6:22 PM EST
Astronomical Twilight 5:06 AM EST 6:51 PM EST
Moon 12:52 AM EST 2:08 PM EST
Length of Visible Light 11h 47m
Length of Day
10h 55m
Tomorrow will be 1m 55s shorter.
Waning Crescent, 28% of the Moon is Illuminated
Today
Waning Crescent
Apr 29
New
May 6
First Quarter
May 14
Full
May 21
Last Quarter

Yesterday's Extremes

Country Highs Country Lows

Community

  • Stacked
    Stacked
  • clouds approaching Red Sox Nation
    clouds approaching Red Sox Nation
  • Balance
    Balance
  • Nestled In
    Nestled In
  • Stunning Sunrise
    Stunning Sunrise

WunderPhotos

Upload Photos

1,704,573 photos uploaded!

WunderBlogs® & News

Nearby

Snow Depth

Not available.

Coastal Water Temperatures

Place Temperature
No Stations Reporting

Earthquake Activity

City Distance Mag. Time & Date
No recent earthquake activity has been reported nearby.
Minimum magnitude displayed is 2.5.

Nearby Weather Stations

Station Location Temp. Dew Point Humidity Wind Precip. Elev Updated Type
Goulburn NSW, Goulburn 58.6 °F 49 °F 70% West  at  0.7 mph 0.00 in / hr 2178 ft 6:13 PM EST Normal
Southern Tablelands, Windellama 56.2 °F 46 °F 68% WNW  at  3.5 mph 0.00 in / hr 2047 ft 6:13 PM EST Rapid Fire

Show More Stations Show Fewer Stations

What do you think?

We're not finished. Please let us know what you like, what you don't like, and what you are still missing.